<?xml version="1.0" encoding="utf-8"?>
<gpx xmlns:xsi="http://www.w3.org/2001/XMLSchema-instance" xmlns:xsd="http://www.w3.org/2001/XMLSchema" version="1.1" creator="Shapelink.com" xmlns="http://www.topografix.com/GPX/1/1" xmlns:gpxtpx="http://www.garmin.com/xmlschemas/TrackPointExtension/v1">
  <metadata>
    <name>Løping 5.63 km, 2012-04-22</name>
    <desc></desc>
    <author><name>Mikael Blom</name></author> 
    <time>2012-04-22T12:51:47Z</time>
  </metadata>
  <trk>
    <name>Løping 5.63 km, 2012-04-22</name>
    <trkseg>
      <trkpt lat="59.982042" lon="17.7381791">
        <ele>45.7999</ele>
        <time>2012-04-22T12:51:47Z</time>
      </trkpt>
      <trkpt lat="59.9821089" lon="17.7381169">
        <ele>49.6453</ele>
        <time>2012-04-22T12:51:51Z</time>
      </trkpt>
      <trkpt lat="59.9822187" lon="17.7380804">
        <ele>52.0486</ele>
        <time>2012-04-22T12:51:55Z</time>
      </trkpt>
      <trkpt lat="59.9823617" lon="17.7380213">
        <ele>53.9712</ele>
        <time>2012-04-22T12:52:00Z</time>
      </trkpt>
      <trkpt lat="59.9825272" lon="17.7380182">
        <ele>54.4518</ele>
        <time>2012-04-22T12:52:06Z</time>
      </trkpt>
      <trkpt lat="59.9826615" lon="17.7380614">
        <ele>51.5679</ele>
        <time>2012-04-22T12:52:11Z</time>
      </trkpt>
      <trkpt lat="59.9827776" lon="17.738054">
        <ele>49.6453</ele>
        <time>2012-04-22T12:52:15Z</time>
      </trkpt>
      <trkpt lat="59.982918" lon="17.7381041">
        <ele>45.7999</ele>
        <time>2012-04-22T12:52:20Z</time>
      </trkpt>
      <trkpt lat="59.9830878" lon="17.7381018">
        <ele>46.7612</ele>
        <time>2012-04-22T12:52:26Z</time>
      </trkpt>
      <trkpt lat="59.9832563" lon="17.7381071">
        <ele>46.7612</ele>
        <time>2012-04-22T12:52:32Z</time>
      </trkpt>
      <trkpt lat="59.9833991" lon="17.7380965">
        <ele>46.2806</ele>
        <time>2012-04-22T12:52:37Z</time>
      </trkpt>
      <trkpt lat="59.9835045" lon="17.7380644">
        <ele>49.1646</ele>
        <time>2012-04-22T12:52:41Z</time>
      </trkpt>
      <trkpt lat="59.9836531" lon="17.7380282">
        <ele>54.4518</ele>
        <time>2012-04-22T12:52:47Z</time>
      </trkpt>
      <trkpt lat="59.9837997" lon="17.7379641">
        <ele>54.4518</ele>
        <time>2012-04-22T12:52:53Z</time>
      </trkpt>
      <trkpt lat="59.9839254" lon="17.7379323">
        <ele>52.5292</ele>
        <time>2012-04-22T12:52:59Z</time>
      </trkpt>
      <trkpt lat="59.9840637" lon="17.7379339">
        <ele>52.5292</ele>
        <time>2012-04-22T12:53:04Z</time>
      </trkpt>
      <trkpt lat="59.9841483" lon="17.7379236">
        <ele>54.9324</ele>
        <time>2012-04-22T12:53:08Z</time>
      </trkpt>
      <trkpt lat="59.9843135" lon="17.7379456">
        <ele>58.7777</ele>
        <time>2012-04-22T12:53:15Z</time>
      </trkpt>
      <trkpt lat="59.9843949" lon="17.7379075">
        <ele>58.7777</ele>
        <time>2012-04-22T12:53:19Z</time>
      </trkpt>
      <trkpt lat="59.9844903" lon="17.737933">
        <ele>57.8165</ele>
        <time>2012-04-22T12:53:23Z</time>
      </trkpt>
      <trkpt lat="59.9846141" lon="17.7380028">
        <ele>57.8165</ele>
        <time>2012-04-22T12:53:28Z</time>
      </trkpt>
      <trkpt lat="59.9847128" lon="17.738023">
        <ele>57.3358</ele>
        <time>2012-04-22T12:53:33Z</time>
      </trkpt>
      <trkpt lat="59.984829" lon="17.7380551">
        <ele>56.3745</ele>
        <time>2012-04-22T12:53:38Z</time>
      </trkpt>
      <trkpt lat="59.984931" lon="17.7380908">
        <ele>52.5292</ele>
        <time>2012-04-22T12:53:43Z</time>
      </trkpt>
      <trkpt lat="59.984975" lon="17.7380907">
        <ele>51.5679</ele>
        <time>2012-04-22T12:53:45Z</time>
      </trkpt>
      <trkpt lat="59.9850718" lon="17.7381137">
        <ele>46.2806</ele>
        <time>2012-04-22T12:53:50Z</time>
      </trkpt>
      <trkpt lat="59.9852103" lon="17.738121">
        <ele>46.7612</ele>
        <time>2012-04-22T12:53:56Z</time>
      </trkpt>
      <trkpt lat="59.9853664" lon="17.73817">
        <ele>46.7612</ele>
        <time>2012-04-22T12:54:03Z</time>
      </trkpt>
      <trkpt lat="59.9853887" lon="17.7381752">
        <ele>47.2418</ele>
        <time>2012-04-22T12:54:04Z</time>
      </trkpt>
      <trkpt lat="59.9854541" lon="17.7380215">
        <ele>48.684</ele>
        <time>2012-04-22T12:54:09Z</time>
      </trkpt>
      <trkpt lat="59.9854548" lon="17.7379087">
        <ele>49.6453</ele>
        <time>2012-04-22T12:54:11Z</time>
      </trkpt>
      <trkpt lat="59.985463" lon="17.7376334">
        <ele>53.9712</ele>
        <time>2012-04-22T12:54:16Z</time>
      </trkpt>
      <trkpt lat="59.985508" lon="17.7374087">
        <ele>61.6617</ele>
        <time>2012-04-22T12:54:21Z</time>
      </trkpt>
      <trkpt lat="59.985564" lon="17.737229">
        <ele>66.949</ele>
        <time>2012-04-22T12:54:25Z</time>
      </trkpt>
      <trkpt lat="59.9856276" lon="17.737143">
        <ele>67.9103</ele>
        <time>2012-04-22T12:54:28Z</time>
      </trkpt>
      <trkpt lat="59.9857935" lon="17.736976">
        <ele>60.7003</ele>
        <time>2012-04-22T12:54:35Z</time>
      </trkpt>
      <trkpt lat="59.9859069" lon="17.7368441">
        <ele>55.8938</ele>
        <time>2012-04-22T12:54:40Z</time>
      </trkpt>
      <trkpt lat="59.9859977" lon="17.7367186">
        <ele>53.0098</ele>
        <time>2012-04-22T12:54:44Z</time>
      </trkpt>
      <trkpt lat="59.9861349" lon="17.7364851">
        <ele>51.5679</ele>
        <time>2012-04-22T12:54:50Z</time>
      </trkpt>
      <trkpt lat="59.9862291" lon="17.7362991">
        <ele>51.0872</ele>
        <time>2012-04-22T12:54:54Z</time>
      </trkpt>
      <trkpt lat="59.986344" lon="17.736113">
        <ele>50.126</ele>
        <time>2012-04-22T12:55:00Z</time>
      </trkpt>
      <trkpt lat="59.986418" lon="17.7358795">
        <ele>53.9712</ele>
        <time>2012-04-22T12:55:05Z</time>
      </trkpt>
      <trkpt lat="59.9864875" lon="17.7356949">
        <ele>50.126</ele>
        <time>2012-04-22T12:55:10Z</time>
      </trkpt>
      <trkpt lat="59.9865425" lon="17.7354932">
        <ele>45.7999</ele>
        <time>2012-04-22T12:55:15Z</time>
      </trkpt>
      <trkpt lat="59.9865911" lon="17.7352709">
        <ele>43.3966</ele>
        <time>2012-04-22T12:55:20Z</time>
      </trkpt>
      <trkpt lat="59.9866253" lon="17.7349884">
        <ele>45.3192</ele>
        <time>2012-04-22T12:55:25Z</time>
      </trkpt>
      <trkpt lat="59.9866689" lon="17.7348099">
        <ele>46.2806</ele>
        <time>2012-04-22T12:55:29Z</time>
      </trkpt>
      <trkpt lat="59.9867011" lon="17.734592">
        <ele>48.2034</ele>
        <time>2012-04-22T12:55:33Z</time>
      </trkpt>
      <trkpt lat="59.9867175" lon="17.734499">
        <ele>48.684</ele>
        <time>2012-04-22T12:55:35Z</time>
      </trkpt>
      <trkpt lat="59.9867777" lon="17.7342457">
        <ele>52.5292</ele>
        <time>2012-04-22T12:55:41Z</time>
      </trkpt>
      <trkpt lat="59.9868246" lon="17.7340888">
        <ele>52.0486</ele>
        <time>2012-04-22T12:55:45Z</time>
      </trkpt>
      <trkpt lat="59.986902" lon="17.7338664">
        <ele>49.1646</ele>
        <time>2012-04-22T12:55:51Z</time>
      </trkpt>
      <trkpt lat="59.9869666" lon="17.7336535">
        <ele>50.6066</ele>
        <time>2012-04-22T12:55:56Z</time>
      </trkpt>
      <trkpt lat="59.9870295" lon="17.7334545">
        <ele>50.6066</ele>
        <time>2012-04-22T12:56:01Z</time>
      </trkpt>
      <trkpt lat="59.9870922" lon="17.7332227">
        <ele>50.126</ele>
        <time>2012-04-22T12:56:06Z</time>
      </trkpt>
      <trkpt lat="59.9871434" lon="17.7330069">
        <ele>47.2418</ele>
        <time>2012-04-22T12:56:11Z</time>
      </trkpt>
      <trkpt lat="59.987216" lon="17.7327472">
        <ele>47.2418</ele>
        <time>2012-04-22T12:56:17Z</time>
      </trkpt>
      <trkpt lat="59.9872733" lon="17.7325166">
        <ele>47.7225</ele>
        <time>2012-04-22T12:56:22Z</time>
      </trkpt>
      <trkpt lat="59.9873165" lon="17.732269">
        <ele>48.2034</ele>
        <time>2012-04-22T12:56:27Z</time>
      </trkpt>
      <trkpt lat="59.9873486" lon="17.7319395">
        <ele>53.0098</ele>
        <time>2012-04-22T12:56:32Z</time>
      </trkpt>
      <trkpt lat="59.98741" lon="17.7317479">
        <ele>56.3745</ele>
        <time>2012-04-22T12:56:36Z</time>
      </trkpt>
      <trkpt lat="59.9874515" lon="17.7316971">
        <ele>56.8551</ele>
        <time>2012-04-22T12:56:38Z</time>
      </trkpt>
      <trkpt lat="59.987539" lon="17.7315513">
        <ele>55.8938</ele>
        <time>2012-04-22T12:56:42Z</time>
      </trkpt>
      <trkpt lat="59.9876576" lon="17.7313821">
        <ele>53.0098</ele>
        <time>2012-04-22T12:56:48Z</time>
      </trkpt>
      <trkpt lat="59.9877432" lon="17.7312775">
        <ele>49.6453</ele>
        <time>2012-04-22T12:56:52Z</time>
      </trkpt>
      <trkpt lat="59.9878458" lon="17.7311605">
        <ele>43.3966</ele>
        <time>2012-04-22T12:56:57Z</time>
      </trkpt>
      <trkpt lat="59.9879427" lon="17.7310111">
        <ele>40.5128</ele>
        <time>2012-04-22T12:57:02Z</time>
      </trkpt>
      <trkpt lat="59.9880536" lon="17.7307982">
        <ele>38.5901</ele>
        <time>2012-04-22T12:57:08Z</time>
      </trkpt>
      <trkpt lat="59.9881287" lon="17.7305699">
        <ele>40.5128</ele>
        <time>2012-04-22T12:57:13Z</time>
      </trkpt>
      <trkpt lat="59.9882236" lon="17.7303074">
        <ele>42.4354</ele>
        <time>2012-04-22T12:57:19Z</time>
      </trkpt>
      <trkpt lat="59.9883151" lon="17.7301457">
        <ele>43.3966</ele>
        <time>2012-04-22T12:57:24Z</time>
      </trkpt>
      <trkpt lat="59.9884504" lon="17.7299825">
        <ele>42.4354</ele>
        <time>2012-04-22T12:57:30Z</time>
      </trkpt>
      <trkpt lat="59.9885639" lon="17.7298595">
        <ele>39.5513</ele>
        <time>2012-04-22T12:57:35Z</time>
      </trkpt>
      <trkpt lat="59.9886846" lon="17.7297462">
        <ele>38.5901</ele>
        <time>2012-04-22T12:57:40Z</time>
      </trkpt>
      <trkpt lat="59.9887622" lon="17.7296383">
        <ele>38.5901</ele>
        <time>2012-04-22T12:57:44Z</time>
      </trkpt>
      <trkpt lat="59.9887814" lon="17.7296121">
        <ele>39.0707</ele>
        <time>2012-04-22T12:57:45Z</time>
      </trkpt>
      <trkpt lat="59.9888943" lon="17.7294188">
        <ele>41.9547</ele>
        <time>2012-04-22T12:57:51Z</time>
      </trkpt>
      <trkpt lat="59.9890207" lon="17.7292261">
        <ele>43.8773</ele>
        <time>2012-04-22T12:57:57Z</time>
      </trkpt>
      <trkpt lat="59.9891361" lon="17.7291313">
        <ele>40.9934</ele>
        <time>2012-04-22T12:58:02Z</time>
      </trkpt>
      <trkpt lat="59.9892515" lon="17.7290278">
        <ele>38.5901</ele>
        <time>2012-04-22T12:58:07Z</time>
      </trkpt>
      <trkpt lat="59.9893652" lon="17.7288401">
        <ele>40.0321</ele>
        <time>2012-04-22T12:58:13Z</time>
      </trkpt>
      <trkpt lat="59.9894563" lon="17.7285988">
        <ele>40.5128</ele>
        <time>2012-04-22T12:58:19Z</time>
      </trkpt>
      <trkpt lat="59.9895002" lon="17.7283726">
        <ele>39.0707</ele>
        <time>2012-04-22T12:58:24Z</time>
      </trkpt>
      <trkpt lat="59.9895179" lon="17.7282466">
        <ele>38.5901</ele>
        <time>2012-04-22T12:58:27Z</time>
      </trkpt>
      <trkpt lat="59.9895381" lon="17.7279392">
        <ele>34.2642</ele>
        <time>2012-04-22T12:58:34Z</time>
      </trkpt>
      <trkpt lat="59.9895468" lon="17.7278566">
        <ele>33.7834</ele>
        <time>2012-04-22T12:58:36Z</time>
      </trkpt>
      <trkpt lat="59.9895562" lon="17.7276067">
        <ele>33.7834</ele>
        <time>2012-04-22T12:58:41Z</time>
      </trkpt>
      <trkpt lat="59.9895579" lon="17.727559">
        <ele>32.8223</ele>
        <time>2012-04-22T12:58:42Z</time>
      </trkpt>
      <trkpt lat="59.9895957" lon="17.7271612">
        <ele>31.8607</ele>
        <time>2012-04-22T12:58:50Z</time>
      </trkpt>
      <trkpt lat="59.9896226" lon="17.726964">
        <ele>32.3416</ele>
        <time>2012-04-22T12:58:54Z</time>
      </trkpt>
      <trkpt lat="59.9896336" lon="17.7266324">
        <ele>35.2255</ele>
        <time>2012-04-22T12:59:00Z</time>
      </trkpt>
      <trkpt lat="59.9896413" lon="17.7265413">
        <ele>35.2255</ele>
        <time>2012-04-22T12:59:02Z</time>
      </trkpt>
      <trkpt lat="59.9896245" lon="17.7264471">
        <ele>35.7061</ele>
        <time>2012-04-22T12:59:04Z</time>
      </trkpt>
      <trkpt lat="59.9895271" lon="17.7265319">
        <ele>33.7834</ele>
        <time>2012-04-22T12:59:08Z</time>
      </trkpt>
      <trkpt lat="59.9894875" lon="17.7265811">
        <ele>32.8223</ele>
        <time>2012-04-22T12:59:09Z</time>
      </trkpt>
      <trkpt lat="59.9893501" lon="17.726592">
        <ele>29.9381</ele>
        <time>2012-04-22T12:59:14Z</time>
      </trkpt>
      <trkpt lat="59.9892351" lon="17.7266217">
        <ele>26.5736</ele>
        <time>2012-04-22T12:59:18Z</time>
      </trkpt>
      <trkpt lat="59.9891327" lon="17.7266463">
        <ele>26.0929</ele>
        <time>2012-04-22T12:59:22Z</time>
      </trkpt>
      <trkpt lat="59.988992" lon="17.7266437">
        <ele>25.6123</ele>
        <time>2012-04-22T12:59:28Z</time>
      </trkpt>
      <trkpt lat="59.9888905" lon="17.7266702">
        <ele>25.1317</ele>
        <time>2012-04-22T12:59:32Z</time>
      </trkpt>
      <trkpt lat="59.9887942" lon="17.7266608">
        <ele>25.6123</ele>
        <time>2012-04-22T12:59:36Z</time>
      </trkpt>
      <trkpt lat="59.9887507" lon="17.7266501">
        <ele>25.1317</ele>
        <time>2012-04-22T12:59:38Z</time>
      </trkpt>
      <trkpt lat="59.9886472" lon="17.7266703">
        <ele>25.1317</ele>
        <time>2012-04-22T12:59:42Z</time>
      </trkpt>
      <trkpt lat="59.9885603" lon="17.7266941">
        <ele>25.1317</ele>
        <time>2012-04-22T12:59:45Z</time>
      </trkpt>
      <trkpt lat="59.9884587" lon="17.7267033">
        <ele>23.6896</ele>
        <time>2012-04-22T12:59:49Z</time>
      </trkpt>
      <trkpt lat="59.9882499" lon="17.7266825">
        <ele>23.209</ele>
        <time>2012-04-22T12:59:58Z</time>
      </trkpt>
      <trkpt lat="59.9881445" lon="17.7266817">
        <ele>23.6896</ele>
        <time>2012-04-22T13:00:02Z</time>
      </trkpt>
      <trkpt lat="59.9880563" lon="17.7266829">
        <ele>23.209</ele>
        <time>2012-04-22T13:00:06Z</time>
      </trkpt>
      <trkpt lat="59.9879555" lon="17.7266853">
        <ele>23.6896</ele>
        <time>2012-04-22T13:00:10Z</time>
      </trkpt>
      <trkpt lat="59.9878285" lon="17.7266828">
        <ele>24.1703</ele>
        <time>2012-04-22T13:00:15Z</time>
      </trkpt>
      <trkpt lat="59.9877494" lon="17.7266796">
        <ele>23.6896</ele>
        <time>2012-04-22T13:00:19Z</time>
      </trkpt>
      <trkpt lat="59.9876163" lon="17.7266796">
        <ele>24.651</ele>
        <time>2012-04-22T13:00:24Z</time>
      </trkpt>
      <trkpt lat="59.9874812" lon="17.7266909">
        <ele>25.1317</ele>
        <time>2012-04-22T13:00:29Z</time>
      </trkpt>
      <trkpt lat="59.98742" lon="17.7266713">
        <ele>24.651</ele>
        <time>2012-04-22T13:00:32Z</time>
      </trkpt>
      <trkpt lat="59.9872945" lon="17.7266566">
        <ele>25.1317</ele>
        <time>2012-04-22T13:00:38Z</time>
      </trkpt>
      <trkpt lat="59.9872056" lon="17.7266596">
        <ele>26.0929</ele>
        <time>2012-04-22T13:00:42Z</time>
      </trkpt>
      <trkpt lat="59.9870973" lon="17.7266548">
        <ele>27.5349</ele>
        <time>2012-04-22T13:00:47Z</time>
      </trkpt>
      <trkpt lat="59.9869859" lon="17.7266672">
        <ele>28.9769</ele>
        <time>2012-04-22T13:00:52Z</time>
      </trkpt>
      <trkpt lat="59.9868766" lon="17.7266905">
        <ele>29.4575</ele>
        <time>2012-04-22T13:00:56Z</time>
      </trkpt>
      <trkpt lat="59.9867656" lon="17.7266849">
        <ele>28.4962</ele>
        <time>2012-04-22T13:01:01Z</time>
      </trkpt>
      <trkpt lat="59.9866849" lon="17.726674">
        <ele>29.9381</ele>
        <time>2012-04-22T13:01:05Z</time>
      </trkpt>
      <trkpt lat="59.9865993" lon="17.7266922">
        <ele>31.3801</ele>
        <time>2012-04-22T13:01:09Z</time>
      </trkpt>
      <trkpt lat="59.9865473" lon="17.7267122">
        <ele>31.3801</ele>
        <time>2012-04-22T13:01:11Z</time>
      </trkpt>
      <trkpt lat="59.9864299" lon="17.7267219">
        <ele>30.8995</ele>
        <time>2012-04-22T13:01:16Z</time>
      </trkpt>
      <trkpt lat="59.9863044" lon="17.7266864">
        <ele>30.4188</ele>
        <time>2012-04-22T13:01:22Z</time>
      </trkpt>
      <trkpt lat="59.9861956" lon="17.7266846">
        <ele>30.8995</ele>
        <time>2012-04-22T13:01:27Z</time>
      </trkpt>
      <trkpt lat="59.986086" lon="17.7266644">
        <ele>30.8995</ele>
        <time>2012-04-22T13:01:32Z</time>
      </trkpt>
      <trkpt lat="59.9859924" lon="17.7266632">
        <ele>30.8995</ele>
        <time>2012-04-22T13:01:36Z</time>
      </trkpt>
      <trkpt lat="59.9858852" lon="17.7266636">
        <ele>30.8995</ele>
        <time>2012-04-22T13:01:40Z</time>
      </trkpt>
      <trkpt lat="59.9858078" lon="17.7266676">
        <ele>30.8995</ele>
        <time>2012-04-22T13:01:43Z</time>
      </trkpt>
      <trkpt lat="59.9857272" lon="17.726667">
        <ele>30.4188</ele>
        <time>2012-04-22T13:01:46Z</time>
      </trkpt>
      <trkpt lat="59.9855783" lon="17.7266386">
        <ele>28.9769</ele>
        <time>2012-04-22T13:01:52Z</time>
      </trkpt>
      <trkpt lat="59.9855003" lon="17.7266336">
        <ele>28.9769</ele>
        <time>2012-04-22T13:01:56Z</time>
      </trkpt>
      <trkpt lat="59.9853807" lon="17.7266279">
        <ele>28.0155</ele>
        <time>2012-04-22T13:02:01Z</time>
      </trkpt>
      <trkpt lat="59.9853379" lon="17.7266323">
        <ele>28.4962</ele>
        <time>2012-04-22T13:02:03Z</time>
      </trkpt>
      <trkpt lat="59.9852429" lon="17.7266007">
        <ele>28.9769</ele>
        <time>2012-04-22T13:02:08Z</time>
      </trkpt>
      <trkpt lat="59.9851039" lon="17.7266164">
        <ele>30.4188</ele>
        <time>2012-04-22T13:02:14Z</time>
      </trkpt>
      <trkpt lat="59.9849806" lon="17.7266423">
        <ele>31.3801</ele>
        <time>2012-04-22T13:02:19Z</time>
      </trkpt>
      <trkpt lat="59.9848539" lon="17.7266469">
        <ele>30.4188</ele>
        <time>2012-04-22T13:02:24Z</time>
      </trkpt>
      <trkpt lat="59.9847511" lon="17.7266559">
        <ele>28.9769</ele>
        <time>2012-04-22T13:02:28Z</time>
      </trkpt>
      <trkpt lat="59.9845583" lon="17.726624">
        <ele>27.5349</ele>
        <time>2012-04-22T13:02:36Z</time>
      </trkpt>
      <trkpt lat="59.9845302" lon="17.726623">
        <ele>27.0543</ele>
        <time>2012-04-22T13:02:37Z</time>
      </trkpt>
      <trkpt lat="59.9843814" lon="17.7267205">
        <ele>25.6123</ele>
        <time>2012-04-22T13:02:41Z</time>
      </trkpt>
      <trkpt lat="59.9843093" lon="17.7267168">
        <ele>25.1317</ele>
        <time>2012-04-22T13:02:44Z</time>
      </trkpt>
      <trkpt lat="59.9842555" lon="17.7267035">
        <ele>25.1317</ele>
        <time>2012-04-22T13:02:47Z</time>
      </trkpt>
      <trkpt lat="59.9841446" lon="17.7267045">
        <ele>25.6123</ele>
        <time>2012-04-22T13:02:52Z</time>
      </trkpt>
      <trkpt lat="59.984081" lon="17.7267009">
        <ele>25.6123</ele>
        <time>2012-04-22T13:02:55Z</time>
      </trkpt>
      <trkpt lat="59.9839288" lon="17.7266847">
        <ele>25.1317</ele>
        <time>2012-04-22T13:03:02Z</time>
      </trkpt>
      <trkpt lat="59.983823" lon="17.726678">
        <ele>25.6123</ele>
        <time>2012-04-22T13:03:07Z</time>
      </trkpt>
      <trkpt lat="59.9837297" lon="17.7266841">
        <ele>26.0929</ele>
        <time>2012-04-22T13:03:11Z</time>
      </trkpt>
      <trkpt lat="59.9835998" lon="17.7266937">
        <ele>26.5736</ele>
        <time>2012-04-22T13:03:17Z</time>
      </trkpt>
      <trkpt lat="59.9834947" lon="17.7267075">
        <ele>27.0543</ele>
        <time>2012-04-22T13:03:21Z</time>
      </trkpt>
      <trkpt lat="59.98339" lon="17.7266991">
        <ele>26.5736</ele>
        <time>2012-04-22T13:03:26Z</time>
      </trkpt>
      <trkpt lat="59.9832816" lon="17.7266855">
        <ele>26.0929</ele>
        <time>2012-04-22T13:03:31Z</time>
      </trkpt>
      <trkpt lat="59.9831805" lon="17.7266732">
        <ele>26.5736</ele>
        <time>2012-04-22T13:03:36Z</time>
      </trkpt>
      <trkpt lat="59.9830753" lon="17.7266646">
        <ele>27.5349</ele>
        <time>2012-04-22T13:03:41Z</time>
      </trkpt>
      <trkpt lat="59.982974" lon="17.7266692">
        <ele>27.5349</ele>
        <time>2012-04-22T13:03:45Z</time>
      </trkpt>
      <trkpt lat="59.9828025" lon="17.7266789">
        <ele>28.0155</ele>
        <time>2012-04-22T13:03:52Z</time>
      </trkpt>
      <trkpt lat="59.982715" lon="17.7267496">
        <ele>28.9769</ele>
        <time>2012-04-22T13:03:56Z</time>
      </trkpt>
      <trkpt lat="59.9825891" lon="17.7269092">
        <ele>29.9381</ele>
        <time>2012-04-22T13:04:02Z</time>
      </trkpt>
      <trkpt lat="59.9824596" lon="17.7270481">
        <ele>33.3029</ele>
        <time>2012-04-22T13:04:08Z</time>
      </trkpt>
      <trkpt lat="59.9823965" lon="17.7271298">
        <ele>33.7834</ele>
        <time>2012-04-22T13:04:11Z</time>
      </trkpt>
      <trkpt lat="59.9823266" lon="17.7273142">
        <ele>34.7449</ele>
        <time>2012-04-22T13:04:16Z</time>
      </trkpt>
      <trkpt lat="59.9822791" lon="17.727469">
        <ele>34.2642</ele>
        <time>2012-04-22T13:04:20Z</time>
      </trkpt>
      <trkpt lat="59.9822011" lon="17.7276354">
        <ele>34.2642</ele>
        <time>2012-04-22T13:04:25Z</time>
      </trkpt>
      <trkpt lat="59.9821113" lon="17.7277807">
        <ele>34.2642</ele>
        <time>2012-04-22T13:04:30Z</time>
      </trkpt>
      <trkpt lat="59.9820116" lon="17.7279197">
        <ele>34.2642</ele>
        <time>2012-04-22T13:04:35Z</time>
      </trkpt>
      <trkpt lat="59.9819224" lon="17.7280747">
        <ele>35.2255</ele>
        <time>2012-04-22T13:04:40Z</time>
      </trkpt>
      <trkpt lat="59.9818457" lon="17.7281806">
        <ele>35.7061</ele>
        <time>2012-04-22T13:04:44Z</time>
      </trkpt>
      <trkpt lat="59.9816945" lon="17.7283052">
        <ele>35.2255</ele>
        <time>2012-04-22T13:04:51Z</time>
      </trkpt>
      <trkpt lat="59.9815791" lon="17.7283409">
        <ele>33.7834</ele>
        <time>2012-04-22T13:04:56Z</time>
      </trkpt>
      <trkpt lat="59.9814878" lon="17.7284305">
        <ele>34.2642</ele>
        <time>2012-04-22T13:05:00Z</time>
      </trkpt>
      <trkpt lat="59.9814011" lon="17.7285709">
        <ele>36.1868</ele>
        <time>2012-04-22T13:05:04Z</time>
      </trkpt>
      <trkpt lat="59.981306" lon="17.7287144">
        <ele>37.1481</ele>
        <time>2012-04-22T13:05:09Z</time>
      </trkpt>
      <trkpt lat="59.9811977" lon="17.7288455">
        <ele>37.6287</ele>
        <time>2012-04-22T13:05:14Z</time>
      </trkpt>
      <trkpt lat="59.981077" lon="17.7290055">
        <ele>39.5513</ele>
        <time>2012-04-22T13:05:20Z</time>
      </trkpt>
      <trkpt lat="59.9809505" lon="17.7291156">
        <ele>40.9934</ele>
        <time>2012-04-22T13:05:25Z</time>
      </trkpt>
      <trkpt lat="59.9808367" lon="17.7291458">
        <ele>39.0707</ele>
        <time>2012-04-22T13:05:30Z</time>
      </trkpt>
      <trkpt lat="59.9807926" lon="17.7291107">
        <ele>37.1481</ele>
        <time>2012-04-22T13:05:32Z</time>
      </trkpt>
      <trkpt lat="59.9807543" lon="17.7290353">
        <ele>34.7449</ele>
        <time>2012-04-22T13:05:34Z</time>
      </trkpt>
      <trkpt lat="59.9807339" lon="17.7288826">
        <ele>32.8223</ele>
        <time>2012-04-22T13:05:37Z</time>
      </trkpt>
      <trkpt lat="59.980643" lon="17.7286635">
        <ele>28.9769</ele>
        <time>2012-04-22T13:05:42Z</time>
      </trkpt>
      <trkpt lat="59.9805828" lon="17.7285004">
        <ele>29.4575</ele>
        <time>2012-04-22T13:05:46Z</time>
      </trkpt>
      <trkpt lat="59.9804812" lon="17.7283226">
        <ele>29.4575</ele>
        <time>2012-04-22T13:05:51Z</time>
      </trkpt>
      <trkpt lat="59.9803794" lon="17.7281119">
        <ele>29.4575</ele>
        <time>2012-04-22T13:05:57Z</time>
      </trkpt>
      <trkpt lat="59.9803602" lon="17.7280812">
        <ele>29.4575</ele>
        <time>2012-04-22T13:05:58Z</time>
      </trkpt>
      <trkpt lat="59.9802811" lon="17.7278854">
        <ele>29.4575</ele>
        <time>2012-04-22T13:06:03Z</time>
      </trkpt>
      <trkpt lat="59.9802052" lon="17.727752">
        <ele>30.4188</ele>
        <time>2012-04-22T13:06:07Z</time>
      </trkpt>
      <trkpt lat="59.9801389" lon="17.7276555">
        <ele>31.3801</ele>
        <time>2012-04-22T13:06:10Z</time>
      </trkpt>
      <trkpt lat="59.9800478" lon="17.7274722">
        <ele>32.3416</ele>
        <time>2012-04-22T13:06:16Z</time>
      </trkpt>
      <trkpt lat="59.979988" lon="17.7273386">
        <ele>31.8607</ele>
        <time>2012-04-22T13:06:20Z</time>
      </trkpt>
      <trkpt lat="59.9798931" lon="17.727168">
        <ele>30.8995</ele>
        <time>2012-04-22T13:06:26Z</time>
      </trkpt>
      <trkpt lat="59.9798084" lon="17.7270334">
        <ele>30.4188</ele>
        <time>2012-04-22T13:06:31Z</time>
      </trkpt>
      <trkpt lat="59.9797602" lon="17.7269444">
        <ele>29.9381</ele>
        <time>2012-04-22T13:06:34Z</time>
      </trkpt>
      <trkpt lat="59.9796602" lon="17.7267593">
        <ele>29.4575</ele>
        <time>2012-04-22T13:06:40Z</time>
      </trkpt>
      <trkpt lat="59.9796456" lon="17.7267229">
        <ele>28.9769</ele>
        <time>2012-04-22T13:06:41Z</time>
      </trkpt>
      <trkpt lat="59.9795592" lon="17.7265175">
        <ele>29.4575</ele>
        <time>2012-04-22T13:06:47Z</time>
      </trkpt>
      <trkpt lat="59.9794991" lon="17.7263805">
        <ele>29.9381</ele>
        <time>2012-04-22T13:06:51Z</time>
      </trkpt>
      <trkpt lat="59.9793795" lon="17.7263558">
        <ele>28.4962</ele>
        <time>2012-04-22T13:06:57Z</time>
      </trkpt>
      <trkpt lat="59.9793567" lon="17.7263508">
        <ele>28.0155</ele>
        <time>2012-04-22T13:06:58Z</time>
      </trkpt>
      <trkpt lat="59.9792822" lon="17.7262854">
        <ele>26.5736</ele>
        <time>2012-04-22T13:07:02Z</time>
      </trkpt>
      <trkpt lat="59.9791888" lon="17.7261885">
        <ele>26.0929</ele>
        <time>2012-04-22T13:07:07Z</time>
      </trkpt>
      <trkpt lat="59.9791672" lon="17.7261721">
        <ele>25.6123</ele>
        <time>2012-04-22T13:07:08Z</time>
      </trkpt>
      <trkpt lat="59.9790385" lon="17.7260249">
        <ele>25.1317</ele>
        <time>2012-04-22T13:07:14Z</time>
      </trkpt>
      <trkpt lat="59.9789506" lon="17.725898">
        <ele>24.1703</ele>
        <time>2012-04-22T13:07:18Z</time>
      </trkpt>
      <trkpt lat="59.978851" lon="17.7257648">
        <ele>25.1317</ele>
        <time>2012-04-22T13:07:23Z</time>
      </trkpt>
      <trkpt lat="59.9787413" lon="17.7256732">
        <ele>24.651</ele>
        <time>2012-04-22T13:07:28Z</time>
      </trkpt>
      <trkpt lat="59.9786513" lon="17.7255566">
        <ele>23.6896</ele>
        <time>2012-04-22T13:07:33Z</time>
      </trkpt>
      <trkpt lat="59.9785842" lon="17.7255119">
        <ele>22.7283</ele>
        <time>2012-04-22T13:07:36Z</time>
      </trkpt>
      <trkpt lat="59.9784762" lon="17.7254673">
        <ele>20.8057</ele>
        <time>2012-04-22T13:07:41Z</time>
      </trkpt>
      <trkpt lat="59.9783595" lon="17.7253866">
        <ele>20.325</ele>
        <time>2012-04-22T13:07:46Z</time>
      </trkpt>
      <trkpt lat="59.9783114" lon="17.7253592">
        <ele>19.8444</ele>
        <time>2012-04-22T13:07:48Z</time>
      </trkpt>
      <trkpt lat="59.9782205" lon="17.7252182">
        <ele>20.8057</ele>
        <time>2012-04-22T13:07:53Z</time>
      </trkpt>
      <trkpt lat="59.9781316" lon="17.7251349">
        <ele>22.2476</ele>
        <time>2012-04-22T13:07:57Z</time>
      </trkpt>
      <trkpt lat="59.9780135" lon="17.7250926">
        <ele>22.7283</ele>
        <time>2012-04-22T13:08:02Z</time>
      </trkpt>
      <trkpt lat="59.9779889" lon="17.7250877">
        <ele>22.2476</ele>
        <time>2012-04-22T13:08:03Z</time>
      </trkpt>
      <trkpt lat="59.9778943" lon="17.7250783">
        <ele>22.2476</ele>
        <time>2012-04-22T13:08:07Z</time>
      </trkpt>
      <trkpt lat="59.9777809" lon="17.7250997">
        <ele>21.767</ele>
        <time>2012-04-22T13:08:11Z</time>
      </trkpt>
      <trkpt lat="59.9777593" lon="17.7250974">
        <ele>22.2476</ele>
        <time>2012-04-22T13:08:12Z</time>
      </trkpt>
      <trkpt lat="59.9776835" lon="17.7250872">
        <ele>22.2476</ele>
        <time>2012-04-22T13:08:15Z</time>
      </trkpt>
      <trkpt lat="59.9776015" lon="17.7250679">
        <ele>22.7283</ele>
        <time>2012-04-22T13:08:19Z</time>
      </trkpt>
      <trkpt lat="59.977438" lon="17.7250343">
        <ele>22.7283</ele>
        <time>2012-04-22T13:08:26Z</time>
      </trkpt>
      <trkpt lat="59.9773466" lon="17.725006">
        <ele>21.2864</ele>
        <time>2012-04-22T13:08:29Z</time>
      </trkpt>
      <trkpt lat="59.977279" lon="17.7249857">
        <ele>20.8057</ele>
        <time>2012-04-22T13:08:32Z</time>
      </trkpt>
      <trkpt lat="59.9771889" lon="17.7249402">
        <ele>20.325</ele>
        <time>2012-04-22T13:08:37Z</time>
      </trkpt>
      <trkpt lat="59.977104" lon="17.7249851">
        <ele>21.767</ele>
        <time>2012-04-22T13:08:41Z</time>
      </trkpt>
      <trkpt lat="59.9770833" lon="17.7250013">
        <ele>21.2864</ele>
        <time>2012-04-22T13:08:42Z</time>
      </trkpt>
      <trkpt lat="59.9769695" lon="17.7251498">
        <ele>22.7283</ele>
        <time>2012-04-22T13:08:48Z</time>
      </trkpt>
      <trkpt lat="59.9768773" lon="17.7252831">
        <ele>24.1703</ele>
        <time>2012-04-22T13:08:53Z</time>
      </trkpt>
      <trkpt lat="59.976775" lon="17.7253561">
        <ele>23.6896</ele>
        <time>2012-04-22T13:08:57Z</time>
      </trkpt>
      <trkpt lat="59.9766802" lon="17.7254832">
        <ele>21.767</ele>
        <time>2012-04-22T13:09:01Z</time>
      </trkpt>
      <trkpt lat="59.9766086" lon="17.7255866">
        <ele>20.8057</ele>
        <time>2012-04-22T13:09:04Z</time>
      </trkpt>
      <trkpt lat="59.9765071" lon="17.7257036">
        <ele>21.767</ele>
        <time>2012-04-22T13:09:09Z</time>
      </trkpt>
      <trkpt lat="59.9763854" lon="17.7258555">
        <ele>23.209</ele>
        <time>2012-04-22T13:09:15Z</time>
      </trkpt>
      <trkpt lat="59.9762653" lon="17.7259786">
        <ele>24.651</ele>
        <time>2012-04-22T13:09:20Z</time>
      </trkpt>
      <trkpt lat="59.9761434" lon="17.7260874">
        <ele>25.1317</ele>
        <time>2012-04-22T13:09:25Z</time>
      </trkpt>
      <trkpt lat="59.9760516" lon="17.726177">
        <ele>25.1317</ele>
        <time>2012-04-22T13:09:29Z</time>
      </trkpt>
      <trkpt lat="59.9759855" lon="17.7262655">
        <ele>25.6123</ele>
        <time>2012-04-22T13:09:32Z</time>
      </trkpt>
      <trkpt lat="59.9759016" lon="17.7263342">
        <ele>26.0929</ele>
        <time>2012-04-22T13:09:37Z</time>
      </trkpt>
      <trkpt lat="59.9757895" lon="17.7264055">
        <ele>23.6896</ele>
        <time>2012-04-22T13:09:43Z</time>
      </trkpt>
      <trkpt lat="59.975699" lon="17.7264796">
        <ele>24.651</ele>
        <time>2012-04-22T13:09:47Z</time>
      </trkpt>
      <trkpt lat="59.9756075" lon="17.726558">
        <ele>24.651</ele>
        <time>2012-04-22T13:09:51Z</time>
      </trkpt>
      <trkpt lat="59.9755147" lon="17.7266931">
        <ele>24.651</ele>
        <time>2012-04-22T13:09:55Z</time>
      </trkpt>
      <trkpt lat="59.975432" lon="17.7267972">
        <ele>24.1703</ele>
        <time>2012-04-22T13:10:00Z</time>
      </trkpt>
      <trkpt lat="59.9753312" lon="17.7269091">
        <ele>22.7283</ele>
        <time>2012-04-22T13:10:05Z</time>
      </trkpt>
      <trkpt lat="59.9752627" lon="17.7269869">
        <ele>23.6896</ele>
        <time>2012-04-22T13:10:09Z</time>
      </trkpt>
      <trkpt lat="59.9751624" lon="17.727083">
        <ele>26.5736</ele>
        <time>2012-04-22T13:10:14Z</time>
      </trkpt>
      <trkpt lat="59.9750668" lon="17.7271727">
        <ele>27.0543</ele>
        <time>2012-04-22T13:10:19Z</time>
      </trkpt>
      <trkpt lat="59.9749646" lon="17.7272796">
        <ele>27.5349</ele>
        <time>2012-04-22T13:10:24Z</time>
      </trkpt>
      <trkpt lat="59.9748773" lon="17.7273692">
        <ele>27.5349</ele>
        <time>2012-04-22T13:10:28Z</time>
      </trkpt>
      <trkpt lat="59.974789" lon="17.7274526">
        <ele>25.6123</ele>
        <time>2012-04-22T13:10:33Z</time>
      </trkpt>
      <trkpt lat="59.9747745" lon="17.7274679">
        <ele>25.1317</ele>
        <time>2012-04-22T13:10:34Z</time>
      </trkpt>
      <trkpt lat="59.9746973" lon="17.7275521">
        <ele>24.651</ele>
        <time>2012-04-22T13:10:39Z</time>
      </trkpt>
      <trkpt lat="59.9745602" lon="17.7276706">
        <ele>25.1317</ele>
        <time>2012-04-22T13:10:45Z</time>
      </trkpt>
      <trkpt lat="59.9745169" lon="17.7276955">
        <ele>25.1317</ele>
        <time>2012-04-22T13:10:47Z</time>
      </trkpt>
      <trkpt lat="59.9744189" lon="17.7275674">
        <ele>25.6123</ele>
        <time>2012-04-22T13:10:52Z</time>
      </trkpt>
      <trkpt lat="59.9743926" lon="17.7274086">
        <ele>25.1317</ele>
        <time>2012-04-22T13:10:55Z</time>
      </trkpt>
      <trkpt lat="59.9743886" lon="17.7270881">
        <ele>25.6123</ele>
        <time>2012-04-22T13:11:01Z</time>
      </trkpt>
      <trkpt lat="59.9743888" lon="17.7267859">
        <ele>25.6123</ele>
        <time>2012-04-22T13:11:07Z</time>
      </trkpt>
      <trkpt lat="59.9743995" lon="17.7264964">
        <ele>27.0543</ele>
        <time>2012-04-22T13:11:13Z</time>
      </trkpt>
      <trkpt lat="59.974393" lon="17.7261699">
        <ele>27.0543</ele>
        <time>2012-04-22T13:11:20Z</time>
      </trkpt>
      <trkpt lat="59.974375" lon="17.7259306">
        <ele>26.5736</ele>
        <time>2012-04-22T13:11:25Z</time>
      </trkpt>
      <trkpt lat="59.9743538" lon="17.7256535">
        <ele>25.1317</ele>
        <time>2012-04-22T13:11:31Z</time>
      </trkpt>
      <trkpt lat="59.9743231" lon="17.7253758">
        <ele>24.651</ele>
        <time>2012-04-22T13:11:37Z</time>
      </trkpt>
      <trkpt lat="59.9742914" lon="17.7251463">
        <ele>25.1317</ele>
        <time>2012-04-22T13:11:42Z</time>
      </trkpt>
      <trkpt lat="59.9742575" lon="17.7248975">
        <ele>26.0929</ele>
        <time>2012-04-22T13:11:47Z</time>
      </trkpt>
      <trkpt lat="59.9742123" lon="17.7246206">
        <ele>26.5736</ele>
        <time>2012-04-22T13:11:53Z</time>
      </trkpt>
      <trkpt lat="59.974174" lon="17.7243582">
        <ele>26.5736</ele>
        <time>2012-04-22T13:11:59Z</time>
      </trkpt>
      <trkpt lat="59.9741419" lon="17.7241238">
        <ele>26.5736</ele>
        <time>2012-04-22T13:12:04Z</time>
      </trkpt>
      <trkpt lat="59.9741147" lon="17.7238666">
        <ele>27.5349</ele>
        <time>2012-04-22T13:12:09Z</time>
      </trkpt>
      <trkpt lat="59.9740621" lon="17.7235617">
        <ele>29.4575</ele>
        <time>2012-04-22T13:12:15Z</time>
      </trkpt>
      <trkpt lat="59.974008" lon="17.723265">
        <ele>29.4575</ele>
        <time>2012-04-22T13:12:21Z</time>
      </trkpt>
      <trkpt lat="59.9739849" lon="17.7231246">
        <ele>29.4575</ele>
        <time>2012-04-22T13:12:24Z</time>
      </trkpt>
      <trkpt lat="59.9739412" lon="17.7228918">
        <ele>28.9769</ele>
        <time>2012-04-22T13:12:29Z</time>
      </trkpt>
      <trkpt lat="59.9739331" lon="17.7228465">
        <ele>28.9769</ele>
        <time>2012-04-22T13:12:30Z</time>
      </trkpt>
      <trkpt lat="59.973877" lon="17.7226222">
        <ele>31.3801</ele>
        <time>2012-04-22T13:12:35Z</time>
      </trkpt>
      <trkpt lat="59.9737881" lon="17.7223696">
        <ele>29.9381</ele>
        <time>2012-04-22T13:12:41Z</time>
      </trkpt>
      <trkpt lat="59.9737185" lon="17.7221666">
        <ele>28.0155</ele>
        <time>2012-04-22T13:12:46Z</time>
      </trkpt>
      <trkpt lat="59.9736462" lon="17.7219684">
        <ele>27.0543</ele>
        <time>2012-04-22T13:12:51Z</time>
      </trkpt>
      <trkpt lat="59.9735836" lon="17.7218165">
        <ele>27.5349</ele>
        <time>2012-04-22T13:12:55Z</time>
      </trkpt>
      <trkpt lat="59.9735047" lon="17.7216569">
        <ele>26.5736</ele>
        <time>2012-04-22T13:13:00Z</time>
      </trkpt>
      <trkpt lat="59.9734204" lon="17.7214937">
        <ele>25.6123</ele>
        <time>2012-04-22T13:13:05Z</time>
      </trkpt>
      <trkpt lat="59.9733141" lon="17.7212945">
        <ele>24.1703</ele>
        <time>2012-04-22T13:13:11Z</time>
      </trkpt>
      <trkpt lat="59.9732041" lon="17.721106">
        <ele>23.6896</ele>
        <time>2012-04-22T13:13:17Z</time>
      </trkpt>
      <trkpt lat="59.9731079" lon="17.7209645">
        <ele>23.209</ele>
        <time>2012-04-22T13:13:22Z</time>
      </trkpt>
      <trkpt lat="59.9730152" lon="17.7208291">
        <ele>23.6896</ele>
        <time>2012-04-22T13:13:27Z</time>
      </trkpt>
      <trkpt lat="59.972921" lon="17.7206899">
        <ele>24.1703</ele>
        <time>2012-04-22T13:13:32Z</time>
      </trkpt>
      <trkpt lat="59.9728252" lon="17.7205634">
        <ele>25.1317</ele>
        <time>2012-04-22T13:13:37Z</time>
      </trkpt>
      <trkpt lat="59.9727832" lon="17.7205185">
        <ele>25.1317</ele>
        <time>2012-04-22T13:13:39Z</time>
      </trkpt>
      <trkpt lat="59.9726821" lon="17.7204127">
        <ele>24.651</ele>
        <time>2012-04-22T13:13:44Z</time>
      </trkpt>
      <trkpt lat="59.9725257" lon="17.7202744">
        <ele>24.1703</ele>
        <time>2012-04-22T13:13:51Z</time>
      </trkpt>
      <trkpt lat="59.9724169" lon="17.7201645">
        <ele>24.1703</ele>
        <time>2012-04-22T13:13:56Z</time>
      </trkpt>
      <trkpt lat="59.9723029" lon="17.7200731">
        <ele>24.651</ele>
        <time>2012-04-22T13:14:01Z</time>
      </trkpt>
      <trkpt lat="59.9721681" lon="17.7199543">
        <ele>25.1317</ele>
        <time>2012-04-22T13:14:07Z</time>
      </trkpt>
      <trkpt lat="59.9720389" lon="17.7198284">
        <ele>25.6123</ele>
        <time>2012-04-22T13:14:13Z</time>
      </trkpt>
      <trkpt lat="59.9719142" lon="17.7197119">
        <ele>25.6123</ele>
        <time>2012-04-22T13:14:19Z</time>
      </trkpt>
      <trkpt lat="59.9718036" lon="17.719603">
        <ele>25.1317</ele>
        <time>2012-04-22T13:14:24Z</time>
      </trkpt>
      <trkpt lat="59.9716668" lon="17.7194881">
        <ele>25.6123</ele>
        <time>2012-04-22T13:14:30Z</time>
      </trkpt>
      <trkpt lat="59.9715462" lon="17.7193917">
        <ele>26.0929</ele>
        <time>2012-04-22T13:14:35Z</time>
      </trkpt>
      <trkpt lat="59.9713995" lon="17.719284">
        <ele>27.0543</ele>
        <time>2012-04-22T13:14:41Z</time>
      </trkpt>
      <trkpt lat="59.9712242" lon="17.7191282">
        <ele>28.0155</ele>
        <time>2012-04-22T13:14:49Z</time>
      </trkpt>
      <trkpt lat="59.9710795" lon="17.7190158">
        <ele>28.4962</ele>
        <time>2012-04-22T13:14:55Z</time>
      </trkpt>
      <trkpt lat="59.9709674" lon="17.7189074">
        <ele>28.4962</ele>
        <time>2012-04-22T13:15:00Z</time>
      </trkpt>
      <trkpt lat="59.9708437" lon="17.7187738">
        <ele>28.9769</ele>
        <time>2012-04-22T13:15:06Z</time>
      </trkpt>
      <trkpt lat="59.970708" lon="17.7186495">
        <ele>28.9769</ele>
        <time>2012-04-22T13:15:12Z</time>
      </trkpt>
      <trkpt lat="59.9705776" lon="17.7185224">
        <ele>28.9769</ele>
        <time>2012-04-22T13:15:18Z</time>
      </trkpt>
      <trkpt lat="59.9704563" lon="17.7184017">
        <ele>29.9381</ele>
        <time>2012-04-22T13:15:24Z</time>
      </trkpt>
      <trkpt lat="59.9703428" lon="17.7183029">
        <ele>29.9381</ele>
        <time>2012-04-22T13:15:29Z</time>
      </trkpt>
      <trkpt lat="59.9702066" lon="17.7181828">
        <ele>29.4575</ele>
        <time>2012-04-22T13:15:35Z</time>
      </trkpt>
      <trkpt lat="59.970075" lon="17.7180594">
        <ele>28.9769</ele>
        <time>2012-04-22T13:15:41Z</time>
      </trkpt>
      <trkpt lat="59.9699702" lon="17.7179639">
        <ele>28.9769</ele>
        <time>2012-04-22T13:15:46Z</time>
      </trkpt>
      <trkpt lat="59.9698611" lon="17.7178579">
        <ele>29.9381</ele>
        <time>2012-04-22T13:15:51Z</time>
      </trkpt>
      <trkpt lat="59.9697376" lon="17.7177734">
        <ele>30.4188</ele>
        <time>2012-04-22T13:15:56Z</time>
      </trkpt>
      <trkpt lat="59.9695628" lon="17.717686">
        <ele>30.4188</ele>
        <time>2012-04-22T13:16:03Z</time>
      </trkpt>
      <trkpt lat="59.9694554" lon="17.7176062">
        <ele>30.8995</ele>
        <time>2012-04-22T13:16:08Z</time>
      </trkpt>
      <trkpt lat="59.9693463" lon="17.7175425">
        <ele>31.3801</ele>
        <time>2012-04-22T13:16:13Z</time>
      </trkpt>
      <trkpt lat="59.9692111" lon="17.7174706">
        <ele>30.8995</ele>
        <time>2012-04-22T13:16:19Z</time>
      </trkpt>
      <trkpt lat="59.9692369" lon="17.7173642">
        <ele>30.8995</ele>
        <time>2012-04-22T13:16:23Z</time>
      </trkpt>
      <trkpt lat="59.9693145" lon="17.7173846">
        <ele>30.8995</ele>
        <time>2012-04-22T13:16:26Z</time>
      </trkpt>
      <trkpt lat="59.9694626" lon="17.7174651">
        <ele>29.9381</ele>
        <time>2012-04-22T13:16:32Z</time>
      </trkpt>
      <trkpt lat="59.969587" lon="17.717534">
        <ele>28.4962</ele>
        <time>2012-04-22T13:16:37Z</time>
      </trkpt>
      <trkpt lat="59.9697531" lon="17.717655">
        <ele>27.5349</ele>
        <time>2012-04-22T13:16:44Z</time>
      </trkpt>
      <trkpt lat="59.9698907" lon="17.7177699">
        <ele>28.0155</ele>
        <time>2012-04-22T13:16:50Z</time>
      </trkpt>
      <trkpt lat="59.9700173" lon="17.7178693">
        <ele>28.0155</ele>
        <time>2012-04-22T13:16:55Z</time>
      </trkpt>
      <trkpt lat="59.9701183" lon="17.7179522">
        <ele>28.0155</ele>
        <time>2012-04-22T13:16:59Z</time>
      </trkpt>
      <trkpt lat="59.9702484" lon="17.718075">
        <ele>28.4962</ele>
        <time>2012-04-22T13:17:05Z</time>
      </trkpt>
      <trkpt lat="59.9704044" lon="17.7182121">
        <ele>28.4962</ele>
        <time>2012-04-22T13:17:12Z</time>
      </trkpt>
      <trkpt lat="59.9705406" lon="17.7183314">
        <ele>27.5349</ele>
        <time>2012-04-22T13:17:18Z</time>
      </trkpt>
      <trkpt lat="59.9706804" lon="17.7184512">
        <ele>27.0543</ele>
        <time>2012-04-22T13:17:24Z</time>
      </trkpt>
      <trkpt lat="59.9708452" lon="17.7185977">
        <ele>27.0543</ele>
        <time>2012-04-22T13:17:31Z</time>
      </trkpt>
      <trkpt lat="59.970981" lon="17.7187212">
        <ele>27.5349</ele>
        <time>2012-04-22T13:17:37Z</time>
      </trkpt>
      <trkpt lat="59.9710976" lon="17.7188269">
        <ele>27.0543</ele>
        <time>2012-04-22T13:17:42Z</time>
      </trkpt>
      <trkpt lat="59.971231" lon="17.7189484">
        <ele>27.0543</ele>
        <time>2012-04-22T13:17:48Z</time>
      </trkpt>
      <trkpt lat="59.9713768" lon="17.7190763">
        <ele>27.5349</ele>
        <time>2012-04-22T13:17:54Z</time>
      </trkpt>
      <trkpt lat="59.9715139" lon="17.7192109">
        <ele>28.4962</ele>
        <time>2012-04-22T13:18:00Z</time>
      </trkpt>
      <trkpt lat="59.9716576" lon="17.7193379">
        <ele>28.4962</ele>
        <time>2012-04-22T13:18:06Z</time>
      </trkpt>
      <trkpt lat="59.9717754" lon="17.7194342">
        <ele>28.9769</ele>
        <time>2012-04-22T13:18:11Z</time>
      </trkpt>
      <trkpt lat="59.9719114" lon="17.7195527">
        <ele>28.0155</ele>
        <time>2012-04-22T13:18:17Z</time>
      </trkpt>
      <trkpt lat="59.9720661" lon="17.7196931">
        <ele>28.4962</ele>
        <time>2012-04-22T13:18:24Z</time>
      </trkpt>
      <trkpt lat="59.972203" lon="17.7198153">
        <ele>28.4962</ele>
        <time>2012-04-22T13:18:30Z</time>
      </trkpt>
      <trkpt lat="59.9723214" lon="17.7199248">
        <ele>28.9769</ele>
        <time>2012-04-22T13:18:35Z</time>
      </trkpt>
      <trkpt lat="59.9724352" lon="17.7200407">
        <ele>28.4962</ele>
        <time>2012-04-22T13:18:40Z</time>
      </trkpt>
      <trkpt lat="59.9725691" lon="17.7201681">
        <ele>28.4962</ele>
        <time>2012-04-22T13:18:46Z</time>
      </trkpt>
      <trkpt lat="59.9727081" lon="17.7203022">
        <ele>27.5349</ele>
        <time>2012-04-22T13:18:52Z</time>
      </trkpt>
      <trkpt lat="59.9728179" lon="17.7204107">
        <ele>27.5349</ele>
        <time>2012-04-22T13:18:57Z</time>
      </trkpt>
      <trkpt lat="59.9728539" lon="17.7204555">
        <ele>27.5349</ele>
        <time>2012-04-22T13:18:59Z</time>
      </trkpt>
      <trkpt lat="59.9729898" lon="17.7205682">
        <ele>27.0543</ele>
        <time>2012-04-22T13:19:04Z</time>
      </trkpt>
      <trkpt lat="59.9730839" lon="17.7206653">
        <ele>26.0929</ele>
        <time>2012-04-22T13:19:08Z</time>
      </trkpt>
      <trkpt lat="59.9731835" lon="17.7208073">
        <ele>25.1317</ele>
        <time>2012-04-22T13:19:13Z</time>
      </trkpt>
      <trkpt lat="59.9732494" lon="17.7209251">
        <ele>24.651</ele>
        <time>2012-04-22T13:19:17Z</time>
      </trkpt>
      <trkpt lat="59.9733671" lon="17.7211146">
        <ele>24.651</ele>
        <time>2012-04-22T13:19:23Z</time>
      </trkpt>
      <trkpt lat="59.9734327" lon="17.721253">
        <ele>24.1703</ele>
        <time>2012-04-22T13:19:27Z</time>
      </trkpt>
      <trkpt lat="59.9735771" lon="17.7215234">
        <ele>25.1317</ele>
        <time>2012-04-22T13:19:35Z</time>
      </trkpt>
      <trkpt lat="59.9736802" lon="17.7216991">
        <ele>26.0929</ele>
        <time>2012-04-22T13:19:40Z</time>
      </trkpt>
      <trkpt lat="59.9737446" lon="17.7218944">
        <ele>26.5736</ele>
        <time>2012-04-22T13:19:45Z</time>
      </trkpt>
      <trkpt lat="59.9738412" lon="17.7221916">
        <ele>27.0543</ele>
        <time>2012-04-22T13:19:52Z</time>
      </trkpt>
      <trkpt lat="59.9739381" lon="17.7225273">
        <ele>27.5349</ele>
        <time>2012-04-22T13:20:00Z</time>
      </trkpt>
      <trkpt lat="59.9740109" lon="17.7227757">
        <ele>27.0543</ele>
        <time>2012-04-22T13:20:06Z</time>
      </trkpt>
      <trkpt lat="59.9740754" lon="17.7230817">
        <ele>26.5736</ele>
        <time>2012-04-22T13:20:13Z</time>
      </trkpt>
      <trkpt lat="59.9741139" lon="17.7232949">
        <ele>26.0929</ele>
        <time>2012-04-22T13:20:17Z</time>
      </trkpt>
      <trkpt lat="59.9741368" lon="17.7234939">
        <ele>24.1703</ele>
        <time>2012-04-22T13:20:21Z</time>
      </trkpt>
      <trkpt lat="59.9741708" lon="17.7237751">
        <ele>22.2476</ele>
        <time>2012-04-22T13:20:27Z</time>
      </trkpt>
      <trkpt lat="59.9741968" lon="17.7239654">
        <ele>22.7283</ele>
        <time>2012-04-22T13:20:31Z</time>
      </trkpt>
      <trkpt lat="59.9742391" lon="17.7242236">
        <ele>23.6896</ele>
        <time>2012-04-22T13:20:36Z</time>
      </trkpt>
      <trkpt lat="59.9742688" lon="17.7244264">
        <ele>25.6123</ele>
        <time>2012-04-22T13:20:40Z</time>
      </trkpt>
      <trkpt lat="59.9743129" lon="17.7247338">
        <ele>26.5736</ele>
        <time>2012-04-22T13:20:46Z</time>
      </trkpt>
      <trkpt lat="59.9743465" lon="17.7249776">
        <ele>28.4962</ele>
        <time>2012-04-22T13:20:51Z</time>
      </trkpt>
      <trkpt lat="59.97438" lon="17.725229">
        <ele>28.9769</ele>
        <time>2012-04-22T13:20:56Z</time>
      </trkpt>
      <trkpt lat="59.9744007" lon="17.7254927">
        <ele>28.9769</ele>
        <time>2012-04-22T13:21:01Z</time>
      </trkpt>
      <trkpt lat="59.9744159" lon="17.7258047">
        <ele>28.4962</ele>
        <time>2012-04-22T13:21:07Z</time>
      </trkpt>
      <trkpt lat="59.974416" lon="17.7259519">
        <ele>28.0155</ele>
        <time>2012-04-22T13:21:10Z</time>
      </trkpt>
      <trkpt lat="59.9744237" lon="17.7261338">
        <ele>27.0543</ele>
        <time>2012-04-22T13:21:14Z</time>
      </trkpt>
      <trkpt lat="59.9744272" lon="17.7263383">
        <ele>26.5736</ele>
        <time>2012-04-22T13:21:18Z</time>
      </trkpt>
      <trkpt lat="59.9744298" lon="17.726513">
        <ele>25.6123</ele>
        <time>2012-04-22T13:21:21Z</time>
      </trkpt>
      <trkpt lat="59.9744351" lon="17.7268069">
        <ele>26.5736</ele>
        <time>2012-04-22T13:21:27Z</time>
      </trkpt>
      <trkpt lat="59.9744365" lon="17.7270774">
        <ele>27.0543</ele>
        <time>2012-04-22T13:21:32Z</time>
      </trkpt>
      <trkpt lat="59.9744471" lon="17.7273137">
        <ele>28.4962</ele>
        <time>2012-04-22T13:21:36Z</time>
      </trkpt>
      <trkpt lat="59.9744667" lon="17.7275643">
        <ele>30.8995</ele>
        <time>2012-04-22T13:21:40Z</time>
      </trkpt>
      <trkpt lat="59.9744636" lon="17.7277276">
        <ele>31.3801</ele>
        <time>2012-04-22T13:21:43Z</time>
      </trkpt>
      <trkpt lat="59.9744708" lon="17.7280217">
        <ele>31.3801</ele>
        <time>2012-04-22T13:21:49Z</time>
      </trkpt>
      <trkpt lat="59.9744761" lon="17.7282497">
        <ele>31.8607</ele>
        <time>2012-04-22T13:21:53Z</time>
      </trkpt>
      <trkpt lat="59.9744854" lon="17.7284609">
        <ele>31.8607</ele>
        <time>2012-04-22T13:21:57Z</time>
      </trkpt>
      <trkpt lat="59.9744931" lon="17.7286819">
        <ele>31.8607</ele>
        <time>2012-04-22T13:22:01Z</time>
      </trkpt>
      <trkpt lat="59.974489" lon="17.7288433">
        <ele>31.3801</ele>
        <time>2012-04-22T13:22:04Z</time>
      </trkpt>
      <trkpt lat="59.9744962" lon="17.7290216">
        <ele>30.4188</ele>
        <time>2012-04-22T13:22:08Z</time>
      </trkpt>
      <trkpt lat="59.9744937" lon="17.7294018">
        <ele>28.9769</ele>
        <time>2012-04-22T13:22:15Z</time>
      </trkpt>
      <trkpt lat="59.9744831" lon="17.729664">
        <ele>28.4962</ele>
        <time>2012-04-22T13:22:20Z</time>
      </trkpt>
      <trkpt lat="59.9744672" lon="17.7299177">
        <ele>28.4962</ele>
        <time>2012-04-22T13:22:25Z</time>
      </trkpt>
      <trkpt lat="59.9744543" lon="17.7301089">
        <ele>28.4962</ele>
        <time>2012-04-22T13:22:29Z</time>
      </trkpt>
      <trkpt lat="59.9744304" lon="17.7303684">
        <ele>27.0543</ele>
        <time>2012-04-22T13:22:34Z</time>
      </trkpt>
      <trkpt lat="59.97441" lon="17.7305823">
        <ele>26.5736</ele>
        <time>2012-04-22T13:22:38Z</time>
      </trkpt>
      <trkpt lat="59.9743878" lon="17.73083">
        <ele>26.0929</ele>
        <time>2012-04-22T13:22:43Z</time>
      </trkpt>
      <trkpt lat="59.9743817" lon="17.7308767">
        <ele>26.0929</ele>
        <time>2012-04-22T13:22:44Z</time>
      </trkpt>
      <trkpt lat="59.9743653" lon="17.7311589">
        <ele>26.5736</ele>
        <time>2012-04-22T13:22:50Z</time>
      </trkpt>
      <trkpt lat="59.9743629" lon="17.7313521">
        <ele>26.5736</ele>
        <time>2012-04-22T13:22:54Z</time>
      </trkpt>
      <trkpt lat="59.9743558" lon="17.7315457">
        <ele>26.5736</ele>
        <time>2012-04-22T13:22:58Z</time>
      </trkpt>
      <trkpt lat="59.9743603" lon="17.7317955">
        <ele>27.5349</ele>
        <time>2012-04-22T13:23:03Z</time>
      </trkpt>
      <trkpt lat="59.9743647" lon="17.7319959">
        <ele>27.5349</ele>
        <time>2012-04-22T13:23:07Z</time>
      </trkpt>
      <trkpt lat="59.9743895" lon="17.7323418">
        <ele>29.9381</ele>
        <time>2012-04-22T13:23:14Z</time>
      </trkpt>
      <trkpt lat="59.9743984" lon="17.7325363">
        <ele>28.9769</ele>
        <time>2012-04-22T13:23:18Z</time>
      </trkpt>
      <trkpt lat="59.9744036" lon="17.7327256">
        <ele>27.5349</ele>
        <time>2012-04-22T13:23:22Z</time>
      </trkpt>
      <trkpt lat="59.9743988" lon="17.7329125">
        <ele>27.0543</ele>
        <time>2012-04-22T13:23:26Z</time>
      </trkpt>
      <trkpt lat="59.974376" lon="17.7332116">
        <ele>24.651</ele>
        <time>2012-04-22T13:23:32Z</time>
      </trkpt>
      <trkpt lat="59.9743662" lon="17.7334086">
        <ele>24.1703</ele>
        <time>2012-04-22T13:23:36Z</time>
      </trkpt>
      <trkpt lat="59.9743429" lon="17.7336613">
        <ele>24.1703</ele>
        <time>2012-04-22T13:23:41Z</time>
      </trkpt>
      <trkpt lat="59.9743268" lon="17.7338378">
        <ele>24.651</ele>
        <time>2012-04-22T13:23:45Z</time>
      </trkpt>
      <trkpt lat="59.9743102" lon="17.7342574">
        <ele>25.6123</ele>
        <time>2012-04-22T13:23:53Z</time>
      </trkpt>
      <trkpt lat="59.9743056" lon="17.7344622">
        <ele>26.0929</ele>
        <time>2012-04-22T13:23:57Z</time>
      </trkpt>
      <trkpt lat="59.9743045" lon="17.7346616">
        <ele>26.5736</ele>
        <time>2012-04-22T13:24:01Z</time>
      </trkpt>
      <trkpt lat="59.9743161" lon="17.7348636">
        <ele>27.5349</ele>
        <time>2012-04-22T13:24:05Z</time>
      </trkpt>
      <trkpt lat="59.9743334" lon="17.7351035">
        <ele>27.5349</ele>
        <time>2012-04-22T13:24:10Z</time>
      </trkpt>
      <trkpt lat="59.9743468" lon="17.7352812">
        <ele>27.0543</ele>
        <time>2012-04-22T13:24:14Z</time>
      </trkpt>
      <trkpt lat="59.9743563" lon="17.7354631">
        <ele>26.5736</ele>
        <time>2012-04-22T13:24:18Z</time>
      </trkpt>
      <trkpt lat="59.974403" lon="17.7356843">
        <ele>26.0929</ele>
        <time>2012-04-22T13:24:23Z</time>
      </trkpt>
      <trkpt lat="59.9744366" lon="17.735885">
        <ele>26.0929</ele>
        <time>2012-04-22T13:24:27Z</time>
      </trkpt>
      <trkpt lat="59.9744905" lon="17.7361503">
        <ele>27.0543</ele>
        <time>2012-04-22T13:24:33Z</time>
      </trkpt>
      <trkpt lat="59.9745407" lon="17.7363347">
        <ele>26.5736</ele>
        <time>2012-04-22T13:24:38Z</time>
      </trkpt>
      <trkpt lat="59.9745952" lon="17.7365783">
        <ele>26.0929</ele>
        <time>2012-04-22T13:24:44Z</time>
      </trkpt>
      <trkpt lat="59.9746685" lon="17.7368174">
        <ele>25.6123</ele>
        <time>2012-04-22T13:24:50Z</time>
      </trkpt>
      <trkpt lat="59.9747278" lon="17.7369391">
        <ele>26.0929</ele>
        <time>2012-04-22T13:24:54Z</time>
      </trkpt>
      <trkpt lat="59.9748261" lon="17.73717">
        <ele>27.0543</ele>
        <time>2012-04-22T13:25:00Z</time>
      </trkpt>
      <trkpt lat="59.9749028" lon="17.7373179">
        <ele>28.0155</ele>
        <time>2012-04-22T13:25:04Z</time>
      </trkpt>
      <trkpt lat="59.9750054" lon="17.7375215">
        <ele>28.4962</ele>
        <time>2012-04-22T13:25:10Z</time>
      </trkpt>
      <trkpt lat="59.9750953" lon="17.7376688">
        <ele>28.9769</ele>
        <time>2012-04-22T13:25:15Z</time>
      </trkpt>
      <trkpt lat="59.9752147" lon="17.7378086">
        <ele>29.4575</ele>
        <time>2012-04-22T13:25:20Z</time>
      </trkpt>
      <trkpt lat="59.9753396" lon="17.7379976">
        <ele>30.8995</ele>
        <time>2012-04-22T13:25:26Z</time>
      </trkpt>
      <trkpt lat="59.9754197" lon="17.7381256">
        <ele>30.4188</ele>
        <time>2012-04-22T13:25:30Z</time>
      </trkpt>
      <trkpt lat="59.9755103" lon="17.7382505">
        <ele>30.8995</ele>
        <time>2012-04-22T13:25:34Z</time>
      </trkpt>
      <trkpt lat="59.9755824" lon="17.7383881">
        <ele>30.8995</ele>
        <time>2012-04-22T13:25:38Z</time>
      </trkpt>
      <trkpt lat="59.9756814" lon="17.7385522">
        <ele>30.8995</ele>
        <time>2012-04-22T13:25:43Z</time>
      </trkpt>
      <trkpt lat="59.9757786" lon="17.738741">
        <ele>31.3801</ele>
        <time>2012-04-22T13:25:48Z</time>
      </trkpt>
      <trkpt lat="59.9758875" lon="17.7389376">
        <ele>30.8995</ele>
        <time>2012-04-22T13:25:54Z</time>
      </trkpt>
      <trkpt lat="59.9759644" lon="17.7390679">
        <ele>31.3801</ele>
        <time>2012-04-22T13:25:58Z</time>
      </trkpt>
    </trkseg>
  </trk>
</gpx>